BVO weather

Bartlesville Municipal Airport
Bartlesville, Oklahoma, United States

Public forecast

Using degrees Fahrenheit for public forecast. Weather courtesy of forecast.io.

METAR (pilot weather report)

Retrieved 2019/05/23 23:53 UTC (2 hours ago):

KBVO 232353Z AUTO 15012KT 10SM CLR 28/21 A2993 RMK AO2 SLP124 T02830206 10294 20261 58014

TAF (pilot weather forecast)

Forecast is more than 12 hours old.

Retrieved 2019/05/23 00:39 UTC (1 day ago):

TAF KBVO 232335Z 2400/2424 18008KT P6SM SCT050 BKN250 FM241200 18010KT P6SM VCSH BKN025 FM241700 18012G18KT P6SM BKN040